sensor_id;sensor_type;location;lat;lon;timestamp;pressure;altitude;pressure_sealevel;temperature
30001;BMP280;16845;48.670;9.000;2023-05-14T00:00:44;95526.34;;;11.27
30001;BMP280;16845;48.670;9.000;2023-05-14T00:03:11;95531.25;;;11.30
30001;BMP280;16845;48.670;9.000;2023-05-14T00:05:38;95527.88;;;11.31
30001;BMP280;16845;48.670;9.000;2023-05-14T00:08:05;95523.75;;;11.28
30001;BMP280;16845;48.670;9.000;2023-05-14T00:10:31;95526.41;;;11.24
30001;BMP280;16845;48.670;9.000;2023-05-14T00:12:58;95516.28;;;11.27
30001;BMP280;16845;48.670;9.000;2023-05-14T00:15:25;95513.94;;;11.22
30001;BMP280;16845;48.670;9.000;2023-05-14T00:17:52;95517.25;;;11.23
30001;BMP280;16845;48.670;9.000;2023-05-14T00:20:19;95509.81;;;11.20
30001;BMP280;16845;48.670;9.000;2023-05-14T00:22:45;95509.03;;;11.18
30001;BMP280;16845;48.670;9.000;2023-05-14T00:25:12;95508.28;;;11.16
30001;BMP280;16845;48.670;9.000;2023-05-14T00:27:38;95508.31;;;11.14
30001;BMP280;16845;48.670;9.000;2023-05-14T00:30:05;95510.09;;;11.11
30001;BMP280;16845;48.670;9.000;2023-05-14T00:32:33;95500.88;;;11.11
30001;BMP280;16845;48.670;9.000;2023-05-14T00:35:00;95502.50;;;11.14
30001;BMP280;16845;48.670;9.000;2023-05-14T00:37:26;95499.97;;;11.14
30001;BMP280;16845;48.670;9.000;2023-05-14T00:39:53;95493.28;;;11.13
30001;BMP280;16845;48.670;9.000;2023-05-14T00:42:19;95496.66;;;11.12
30001;BMP280;16845;48.670;9.000;2023-05-14T00:44:46;95487.34;;;11.15
30001;BMP280;16845;48.670;9.000;2023-05-14T00:47:13;95491.25;;;11.24
30001;BMP280;16845;48.670;9.000;2023-05-14T00:49:41;95488.19;;;11.16
30001;BMP280;16845;48.670;9.000;2023-05-14T00:52:08;95489.97;;;11.12
30001;BMP280;16845;48.670;9.000;2023-05-14T00:54:36;95489.06;;;11.15
30001;BMP280;16845;48.670;9.000;2023-05-14T00:57:03;95490.78;;;11.13
30001;BMP280;16845;48.670;9.000;2023-05-14T00:59:31;95481.72;;;11.09
30001;BMP280;16845;48.670;9.000;2023-05-14T01:01:58;95483.25;;;11.13
30001;BMP280;16845;48.670;9.000;2023-05-14T01:04:24;95477.38;;;11.14
30001;BMP280;16845;48.670;9.000;2023-05-14T01:06:58;95478.22;;;11.13
30001;BMP280;16845;48.670;9.000;2023-05-14T01:09:35;95476.84;;;11.04
30001;BMP280;16845;48.670;9.000;2023-05-14T01:12:10;95474.25;;;11.07
30001;BMP280;16845;48.670;9.000;2023-05-14T01:14:40;95473.38;;;11.08
30001;BMP280;16845;48.670;9.000;2023-05-14T01:17:10;95476.06;;;11.02
30001;BMP280;16845;48.670;9.000;2023-05-14T01:19:39;95467.66;;;11.03
30001;BMP280;16845;48.670;9.000;2023-05-14T01:22:07;95462.72;;;11.02
30001;BMP280;16845;48.670;9.000;2023-05-14T01:24:34;95466.13;;;10.99
30001;BMP280;16845;48.670;9.000;2023-05-14T01:27:08;95463.84;;;10.92
30001;BMP280;16845;48.670;9.000;2023-05-14T01:29:37;95465.41;;;10.96
30001;BMP280;16845;48.670;9.000;2023-05-14T01:32:06;95461.13;;;10.98
30001;BMP280;16845;48.670;9.000;2023-05-14T01:34:35;95457.91;;;10.94
30001;BMP280;16845;48.670;9.000;2023-05-14T01:37:03;95460.19;;;11.02
30001;BMP280;16845;48.670;9.000;2023-05-14T01:39:33;95465.41;;;10.96
30001;BMP280;16845;48.670;9.000;2023-05-14T01:42:00;95452.88;;;10.94
30001;BMP280;16845;48.670;9.000;2023-05-14T01:44:27;95457.19;;;10.91
30001;BMP280;16845;48.670;9.000;2023-05-14T01:46:54;95459.75;;;10.89
30001;BMP280;16845;48.670;9.000;2023-05-14T01:49:20;95462.06;;;10.95
30001;BMP280;16845;48.670;9.000;2023-05-14T01:51:47;95451.25;;;10.93
30001;BMP280;16845;48.670;9.000;2023-05-14T01:54:13;95453.72;;;10.95
30001;BMP280;16845;48.670;9.000;2023-05-14T01:56:41;95463.66;;;10.98
30001;BMP280;16845;48.670;9.000;2023-05-14T01:59:08;95465.28;;;10.99
30001;BMP280;16845;48.670;9.000;2023-05-14T02:01:34;95458.63;;;10.98
30001;BMP280;16845;48.670;9.000;2023-05-14T02:04:01;95453.56;;;10.99
30001;BMP280;16845;48.670;9.000;2023-05-14T02:06:27;95452.75;;;10.99
30001;BMP280;16845;48.670;9.000;2023-05-14T02:08:54;95456.25;;;10.93
30001;BMP280;16845;48.670;9.000;2023-05-14T02:11:20;95459.75;;;10.89
30001;BMP280;16845;48.670;9.000;2023-05-14T02:13:48;95456.97;;;10.98
30001;BMP280;16845;48.670;9.000;2023-05-14T02:16:15;95462.28;;;10.88
30001;BMP280;16845;48.670;9.000;2023-05-14T02:18:41;95459.88;;;10.85
30001;BMP280;16845;48.670;9.000;2023-05-14T02:21:08;95457.59;;;10.79
30001;BMP280;16845;48.670;9.000;2023-05-14T02:23:34;95455.00;;;10.80
30001;BMP280;16845;48.670;9.000;2023-05-14T02:26:07;95447.19;;;10.63
30001;BMP280;16845;48.670;9.000;2023-05-14T02:28:34;95450.09;;;10.50
30001;BMP280;16845;48.670;9.000;2023-05-14T02:31:02;95457.78;;;10.44
30001;BMP280;16845;48.670;9.000;2023-05-14T02:33:28;95463.13;;;10.33
30001;BMP280;16845;48.670;9.000;2023-05-14T02:35:55;95464.22;;;10.25
30001;BMP280;16845;48.670;9.000;2023-05-14T02:38:22;95468.50;;;10.21
30001;BMP280;16845;48.670;9.000;2023-05-14T02:40:48;95478.78;;;10.12
30001;BMP280;16845;48.670;9.000;2023-05-14T02:43:15;95469.66;;;10.10
30001;BMP280;16845;48.670;9.000;2023-05-14T02:45:41;95468.19;;;10.01
30001;BMP280;16845;48.670;9.000;2023-05-14T02:48:09;95472.69;;;9.90
30001;BMP280;16845;48.670;9.000;2023-05-14T02:50:35;95468.63;;;9.86
30001;BMP280;16845;48.670;9.000;2023-05-14T02:53:02;95475.25;;;9.89
30001;BMP280;16845;48.670;9.000;2023-05-14T02:55:29;95475.25;;;9.89
30001;BMP280;16845;48.670;9.000;2023-05-14T02:57:55;95464.28;;;9.93
30001;BMP280;16845;48.670;9.000;2023-05-14T03:00:22;95468.31;;;9.97
30001;BMP280;16845;48.670;9.000;2023-05-14T03:02:49;95463.19;;;10.03
30001;BMP280;16845;48.670;9.000;2023-05-14T03:05:18;95468.19;;;10.03
30001;BMP280;16845;48.670;9.000;2023-05-14T03:07:44;95463.81;;;10.11
30001;BMP280;16845;48.670;9.000;2023-05-14T03:10:11;95468.63;;;10.17
30001;BMP280;16845;48.670;9.000;2023-05-14T03:12:37;95465.22;;;10.19
30001;BMP280;16845;48.670;9.000;2023-05-14T03:15:05;95461.84;;;10.20
30001;BMP280;16845;48.670;9.000;2023-05-14T03:17:31;95463.41;;;10.24
30001;BMP280;16845;48.670;9.000;2023-05-14T03:19:58;95463.28;;;10.27
30001;BMP280;16845;48.670;9.000;2023-05-14T03:22:26;95468.41;;;10.24
30001;BMP280;16845;48.670;9.000;2023-05-14T03:24:52;95463.13;;;10.33
30001;BMP280;16845;48.670;9.000;2023-05-14T03:27:19;95463.78;;;10.40
30001;BMP280;16845;48.670;9.000;2023-05-14T03:29:45;95467.06;;;10.42
30001;BMP280;16845;48.670;9.000;2023-05-14T03:32:12;95469.41;;;10.48
30001;BMP280;16845;48.670;9.000;2023-05-14T03:34:38;95460.28;;;10.45
30001;BMP280;16845;48.670;9.000;2023-05-14T03:37:05;95466.81;;;10.49
30001;BMP280;16845;48.670;9.000;2023-05-14T03:39:33;95459.25;;;10.51
30001;BMP280;16845;48.670;9.000;2023-05-14T03:42:00;95461.75;;;10.52
30001;BMP280;16845;48.670;9.000;2023-05-14T03:44:26;95458.41;;;10.52
30001;BMP280;16845;48.670;9.000;2023-05-14T03:46:53;95460.03;;;10.53
30001;BMP280;16845;48.670;9.000;2023-05-14T03:49:19;95453.25;;;10.56
30001;BMP280;16845;48.670;9.000;2023-05-14T03:51:46;95458.94;;;10.61
30001;BMP280;16845;48.670;9.000;2023-05-14T03:54:12;95454.00;;;10.58
30001;BMP280;16845;48.670;9.000;2023-05-14T03:56:40;95463.25;;;10.58
30001;BMP280;16845;48.670;9.000;2023-05-14T03:59:07;95456.59;;;10.57
30001;BMP280;16845;48.670;9.000;2023-05-14T04:01:33;95449.91;;;10.56
30001;BMP280;16845;48.670;9.000;2023-05-14T04:04:00;95456.38;;;10.63
30001;BMP280;16845;48.670;9.000;2023-05-14T04:06:27;95452.28;;;10.60
30001;BMP280;16845;48.670;9.000;2023-05-14T04:08:53;95460.09;;;10.51
30001;BMP280;16845;48.670;9.000;2023-05-14T04:11:19;95459.88;;;10.59
30001;BMP280;16845;48.670;9.000;2023-05-14T04:13:47;95458.22;;;10.58
30001;BMP280;16845;48.670;9.000;2023-05-14T04:16:14;95455.72;;;10.58
30001;BMP280;16845;48.670;9.000;2023-05-14T04:18:40;95451.38;;;10.63
30001;BMP280;16845;48.670;9.000;2023-05-14T04:21:07;95455.16;;;10.76
30001;BMP280;16845;48.670;9.000;2023-05-14T04:23:34;95456.28;;;10.66
30001;BMP280;16845;48.670;9.000;2023-05-14T04:26:00;95452.25;;;10.62
30001;BMP280;16845;48.670;9.000;2023-05-14T04:28:26;95453.00;;;10.64
30001;BMP280;16845;48.670;9.000;2023-05-14T04:30:54;95447.09;;;10.66
30001;BMP280;16845;48.670;9.000;2023-05-14T04:33:21;95451.19;;;10.69
30001;BMP280;16845;48.670;9.000;2023-05-14T04:35:47;95450.13;;;10.76
30001;BMP280;16845;48.670;9.000;2023-05-14T04:38:14;95439.31;;;10.74
30001;BMP280;16845;48.670;9.000;2023-05-14T04:40:40;95448.56;;;10.73
30001;BMP280;16845;48.670;9.000;2023-05-14T04:43:07;95444.81;;;10.85
30001;BMP280;16845;48.670;9.000;2023-05-14T04:45:33;95447.44;;;10.82
30001;BMP280;16845;48.670;9.000;2023-05-14T04:48:03;95444.72;;;10.88
30001;BMP280;16845;48.670;9.000;2023-05-14T04:50:29;95448.50;;;10.75
30001;BMP280;16845;48.670;9.000;2023-05-14T04:52:56;95452.47;;;10.82
30001;BMP280;16845;48.670;9.000;2023-05-14T04:55:23;95447.44;;;10.82
30001;BMP280;16845;48.670;9.000;2023-05-14T04:57:49;95454.69;;;10.91
30001;BMP280;16845;48.670;9.000;2023-05-14T05:00:16;95456.88;;;11.00
30001;BMP280;16845;48.670;9.000;2023-05-14T05:02:42;95455.75;;;10.84
30001;BMP280;16845;48.670;9.000;2023-05-14T05:05:10;95454.03;;;10.84
30001;BMP280;16845;48.670;9.000;2023-05-14T05:07:37;95456.78;;;10.77
30001;BMP280;16845;48.670;9.000;2023-05-14T05:10:04;95454.66;;;10.65
30001;BMP280;16845;48.670;9.000;2023-05-14T05:12:31;95441.59;;;10.81
30001;BMP280;16845;48.670;9.000;2023-05-14T05:14:57;95448.44;;;10.76
30001;BMP280;16845;48.670;9.000;2023-05-14T05:17:24;95447.06;;;10.94
30001;BMP280;16845;48.670;9.000;2023-05-14T05:19:50;95449.88;;;10.83
30001;BMP280;16845;48.670;9.000;2023-05-14T05:22:19;95449.09;;;10.83
30001;BMP280;16845;48.670;9.000;2023-05-14T05:24:45;95442.81;;;10.96
30001;BMP280;16845;48.670;9.000;2023-05-14T05:27:15;95443.81;;;10.90
30001;BMP280;16845;48.670;9.000;2023-05-14T05:29:42;95442.31;;;10.85
30001;BMP280;16845;48.670;9.000;2023-05-14T05:32:08;95442.78;;;10.97
30001;BMP280;16845;48.670;9.000;2023-05-14T05:34:35;95444.88;;;10.83
30001;BMP280;16845;48.670;9.000;2023-05-14T05:37:02;95449.13;;;11.07
30001;BMP280;16845;48.670;9.000;2023-05-14T05:39:29;95445.25;;;11.23
30001;BMP280;16845;48.670;9.000;2023-05-14T05:41:56;95452.53;;;11.31
30001;BMP280;16845;48.670;9.000;2023-05-14T05:44:22;95447.81;;;11.22
30001;BMP280;16845;48.670;9.000;2023-05-14T05:46:49;95450.50;;;11.42
30001;BMP280;16845;48.670;9.000;2023-05-14T05:49:16;95442.63;;;11.26
30001;BMP280;16845;48.670;9.000;2023-05-14T05:51:42;95453.88;;;11.41
30001;BMP280;16845;48.670;9.000;2023-05-14T05:54:08;95453.97;;;11.38
30001;BMP280;16845;48.670;9.000;2023-05-14T05:56:36;95445.97;;;11.27
30001;BMP280;16845;48.670;9.000;2023-05-14T05:59:03;95450.72;;;11.36
30001;BMP280;16845;48.670;9.000;2023-05-14T06:01:29;95443.41;;;11.53
30001;BMP280;16845;48.670;9.000;2023-05-14T06:03:56;95443.59;;;11.47
30001;BMP280;16845;48.670;9.000;2023-05-14T06:06:22;95445.34;;;11.45
30001;BMP280;16845;48.670;9.000;2023-05-14T06:08:49;95455.56;;;11.16
30001;BMP280;16845;48.670;9.000;2023-05-14T06:11:15;95456.03;;;11.27
30001;BMP280;16845;48.670;9.000;2023-05-14T06:13:43;95456.59;;;11.09
30001;BMP280;16845;48.670;9.000;2023-05-14T06:16:09;95456.56;;;11.35
30001;BMP280;16845;48.670;9.000;2023-05-14T06:18:36;95460.09;;;11.05
30001;BMP280;16845;48.670;9.000;2023-05-14T06:21:03;95459.84;;;10.86
30001;BMP280;16845;48.670;9.000;2023-05-14T06:23:29;95464.72;;;10.91
30001;BMP280;16845;48.670;9.000;2023-05-14T06:25:56;95468.53;;;11.02
30001;BMP280;16845;48.670;9.000;2023-05-14T06:28:22;95460.94;;;11.30
30001;BMP280;16845;48.670;9.000;2023-05-14T06:30:50;95460.47;;;11.19
30001;BMP280;16845;48.670;9.000;2023-05-14T06:33:17;95466.16;;;11.24
30001;BMP280;16845;48.670;9.000;2023-05-14T06:35:45;95462.72;;;11.02
30001;BMP280;16845;48.670;9.000;2023-05-14T06:38:12;95467.28;;;11.15
30001;BMP280;16845;48.670;9.000;2023-05-14T06:40:38;95463.59;;;11.25
30001;BMP280;16845;48.670;9.000;2023-05-14T06:43:05;95461.34;;;11.18
30001;BMP280;16845;48.670;9.000;2023-05-14T06:45:31;95464.75;;;11.15
30001;BMP280;16845;48.670;9.000;2023-05-14T06:48:00;95463.56;;;11.27
30001;BMP280;16845;48.670;9.000;2023-05-14T06:50:26;95464.66;;;11.44
30001;BMP280;16845;48.670;9.000;2023-05-14T06:52:53;95462.53;;;11.32
30001;BMP280;16845;48.670;9.000;2023-05-14T06:55:20;95458.69;;;11.47
30001;BMP280;16845;48.670;9.000;2023-05-14T06:57:46;95452.88;;;11.71
30001;BMP280;16845;48.670;9.000;2023-05-14T07:00:14;95454.28;;;11.77
30001;BMP280;16845;48.670;9.000;2023-05-14T07:02:40;95448.94;;;11.86
30001;BMP280;16845;48.670;9.000;2023-05-14T07:05:09;95459.13;;;11.83
30001;BMP280;16845;48.670;9.000;2023-05-14T07:07:35;95455.88;;;11.80
30001;BMP280;16845;48.670;9.000;2023-05-14T07:10:02;95452.06;;;12.16
30001;BMP280;16845;48.670;9.000;2023-05-14T07:12:29;95455.72;;;12.30
30001;BMP280;16845;48.670;9.000;2023-05-14T07:14:55;95453.06;;;12.35
30001;BMP280;16845;48.670;9.000;2023-05-14T07:17:22;95447.19;;;12.11
30001;BMP280;16845;48.670;9.000;2023-05-14T07:19:48;95444.34;;;12.43
30001;BMP280;16845;48.670;9.000;2023-05-14T07:22:16;95447.81;;;12.62
30001;BMP280;16845;48.670;9.000;2023-05-14T07:24:43;95441.31;;;12.78
30001;BMP280;16845;48.670;9.000;2023-05-14T07:27:09;95437.97;;;12.56
30001;BMP280;16845;48.670;9.000;2023-05-14T07:29:36;95426.72;;;13.08
30001;BMP280;16845;48.670;9.000;2023-05-14T07:32:03;95426.56;;;13.32
30001;BMP280;16845;48.670;9.000;2023-05-14T07:34:29;95434.34;;;13.06
30001;BMP280;16845;48.670;9.000;2023-05-14T07:36:56;95425.34;;;13.41
30001;BMP280;16845;48.670;9.000;2023-05-14T07:39:23;95426.56;;;13.32
30001;BMP280;16845;48.670;9.000;2023-05-14T07:41:50;95430.31;;;13.22
30001;BMP280;16845;48.670;9.000;2023-05-14T07:44:16;95427.88;;;13.61
30001;BMP280;16845;48.670;9.000;2023-05-14T07:46:43;95417.47;;;13.68
30001;BMP280;16845;48.670;9.000;2023-05-14T07:49:09;95425.84;;;13.69
30001;BMP280;16845;48.670;9.000;2023-05-14T07:51:36;95423.63;;;13.61
30001;BMP280;16845;48.670;9.000;2023-05-14T07:54:03;95416.06;;;13.81
30001;BMP280;16845;48.670;9.000;2023-05-14T07:56:31;95418.78;;;13.95
30001;BMP280;16845;48.670;9.000;2023-05-14T07:58:57;95420.19;;;14.02
30001;BMP280;16845;48.670;9.000;2023-05-14T08:01:24;95422.16;;;13.96
30001;BMP280;16845;48.670;9.000;2023-05-14T08:03:50;95423.72;;;13.60
30001;BMP280;16845;48.670;9.000;2023-05-14T08:06:17;95424.88;;;14.09
30001;BMP280;16845;48.670;9.000;2023-05-14T08:08:43;95419.97;;;14.26
30001;BMP280;16845;48.670;9.000;2023-05-14T08:11:10;95422.75;;;14.01
30001;BMP280;16845;48.670;9.000;2023-05-14T08:13:38;95423.53;;;14.58
30001;BMP280;16845;48.670;9.000;2023-05-14T08:16:05;95417.56;;;14.77
30001;BMP280;16845;48.670;9.000;2023-05-14T08:18:32;95416.00;;;14.75
30001;BMP280;16845;48.670;9.000;2023-05-14T08:20:58;95418.13;;;15.18
30001;BMP280;16845;48.670;9.000;2023-05-14T08:23:27;95413.50;;;15.09
30001;BMP280;16845;48.670;9.000;2023-05-14T08:25:54;95412.72;;;14.73
30001;BMP280;16845;48.670;9.000;2023-05-14T08:28:20;95412.94;;;15.21
30001;BMP280;16845;48.670;9.000;2023-05-14T08:30:48;95410.41;;;15.04
30001;BMP280;16845;48.670;9.000;2023-05-14T08:33:15;95401.97;;;15.56
30001;BMP280;16845;48.670;9.000;2023-05-14T08:35:41;95399.78;;;15.98
30001;BMP280;16845;48.670;9.000;2023-05-14T08:38:07;95396.56;;;16.27
30001;BMP280;16845;48.670;9.000;2023-05-14T08:40:34;95398.25;;;16.43
30001;BMP280;16845;48.670;9.000;2023-05-14T08:43:01;95393.94;;;16.13
30001;BMP280;16845;48.670;9.000;2023-05-14T08:45:29;95394.41;;;16.04
30001;BMP280;16845;48.670;9.000;2023-05-14T08:47:58;95398.31;;;14.75
30001;BMP280;16845;48.670;9.000;2023-05-14T08:50:25;95398.75;;;15.52
30001;BMP280;16845;48.670;9.000;2023-05-14T08:52:53;95397.25;;;15.98
30001;BMP280;16845;48.670;9.000;2023-05-14T08:55:20;95389.31;;;16.36
30001;BMP280;16845;48.670;9.000;2023-05-14T08:57:47;95390.53;;;16.45
30001;BMP280;16845;48.670;9.000;2023-05-14T09:00:13;95390.03;;;16.69
30001;BMP280;16845;48.670;9.000;2023-05-14T09:02:40;95387.69;;;16.81
30001;BMP280;16845;48.670;9.000;2023-05-14T09:05:09;95385.81;;;16.39
30001;BMP280;16845;48.670;9.000;2023-05-14T09:07:35;95390.72;;;16.42
30001;BMP280;16845;48.670;9.000;2023-05-14T09:10:03;95379.97;;;17.12
30001;BMP280;16845;48.670;9.000;2023-05-14T09:12:29;95382.84;;;17.51
30001;BMP280;16845;48.670;9.000;2023-05-14T09:14:56;95373.13;;;18.42
30001;BMP280;16845;48.670;9.000;2023-05-14T09:17:24;95371.63;;;18.11
30001;BMP280;16845;48.670;9.000;2023-05-14T09:19:51;95369.22;;;19.03
30001;BMP280;16845;48.670;9.000;2023-05-14T09:22:20;95366.25;;;18.97
30001;BMP280;16845;48.670;9.000;2023-05-14T09:25:01;95355.88;;;19.26
30001;BMP280;16845;48.670;9.000;2023-05-14T09:27:29;95353.06;;;19.80
30001;BMP280;16845;48.670;9.000;2023-05-14T09:30:03;95343.91;;;19.78
30001;BMP280;16845;48.670;9.000;2023-05-14T09:32:34;95351.09;;;19.46
30001;BMP280;16845;48.670;9.000;2023-05-14T09:35:09;95354.88;;;19.41
30001;BMP280;16845;48.670;9.000;2023-05-14T09:37:36;95358.69;;;18.56
30001;BMP280;16845;48.670;9.000;2023-05-14T09:40:07;95344.09;;;19.87
30001;BMP280;16845;48.670;9.000;2023-05-14T09:42:33;95339.44;;;19.69
30001;BMP280;16845;48.670;9.000;2023-05-14T09:45:00;95339.03;;;18.32
30001;BMP280;16845;48.670;9.000;2023-05-14T09:47:26;95341.13;;;18.25
30001;BMP280;16845;48.670;9.000;2023-05-14T09:49:53;95342.59;;;18.01
30001;BMP280;16845;48.670;9.000;2023-05-14T09:52:19;95352.03;;;17.57
30001;BMP280;16845;48.670;9.000;2023-05-14T09:54:47;95356.22;;;16.99
30001;BMP280;16845;48.670;9.000;2023-05-14T09:57:14;95351.84;;;17.17
30001;BMP280;16845;48.670;9.000;2023-05-14T09:59:40;95351.13;;;16.85
30001;BMP280;16845;48.670;9.000;2023-05-14T10:02:15;95351.34;;;16.96
30001;BMP280;16845;48.670;9.000;2023-05-14T10:04:51;95344.59;;;16.37
30001;BMP280;16845;48.670;9.000;2023-05-14T10:07:21;95345.09;;;16.11
30001;BMP280;16845;48.670;9.000;2023-05-14T10:09:52;95357.28;;;15.72
30001;BMP280;16845;48.670;9.000;2023-05-14T10:12:20;95344.03;;;15.84
30001;BMP280;16845;48.670;9.000;2023-05-14T10:14:49;95354.38;;;15.47
30001;BMP280;16845;48.670;9.000;2023-05-14T10:17:16;95350.66;;;15.20
30001;BMP280;16845;48.670;9.000;2023-05-14T10:19:48;95355.50;;;15.07
30001;BMP280;16845;48.670;9.000;2023-05-14T10:22:20;95355.47;;;15.24
30001;BMP280;16845;48.670;9.000;2023-05-14T10:24:49;95357.41;;;15.53
30001;BMP280;16845;48.670;9.000;2023-05-14T10:27:18;95341.44;;;16.16
30001;BMP280;16845;48.670;9.000;2023-05-14T10:29:50;95342.34;;;16.31
30001;BMP280;16845;48.670;9.000;2023-05-14T10:32:19;95339.09;;;16.60
30001;BMP280;16845;48.670;9.000;2023-05-14T10:34:45;95337.69;;;16.99
30001;BMP280;16845;48.670;9.000;2023-05-14T10:37:13;95331.69;;;18.27
30001;BMP280;16845;48.670;9.000;2023-05-14T10:39:42;95325.56;;;18.58
30001;BMP280;16845;48.670;9.000;2023-05-14T10:42:12;95333.28;;;20.09
30001;BMP280;16845;48.670;9.000;2023-05-14T10:44:44;95313.41;;;21.87
30001;BMP280;16845;48.670;9.000;2023-05-14T10:47:13;95305.59;;;21.11
30001;BMP280;16845;48.670;9.000;2023-05-14T10:49:40;95311.53;;;19.55
30001;BMP280;16845;48.670;9.000;2023-05-14T10:52:10;95310.06;;;19.13
30001;BMP280;16845;48.670;9.000;2023-05-14T10:54:36;95317.38;;;20.30
30001;BMP280;16845;48.670;9.000;2023-05-14T10:57:10;95291.69;;;22.04
30001;BMP280;16845;48.670;9.000;2023-05-14T10:59:40;95297.56;;;21.04
30001;BMP280;16845;48.670;9.000;2023-05-14T11:02:18;95297.81;;;19.45
30001;BMP280;16845;48.670;9.000;2023-05-14T11:04:51;95313.66;;;19.73
30001;BMP280;16845;48.670;9.000;2023-05-14T11:07:19;95300.25;;;21.03
30001;BMP280;16845;48.670;9.000;2023-05-14T11:09:49;95290.44;;;21.87
30001;BMP280;16845;48.670;9.000;2023-05-14T11:12:17;95285.00;;;25.07
30001;BMP280;16845;48.670;9.000;2023-05-14T11:14:45;95267.72;;;25.37
30001;BMP280;16845;48.670;9.000;2023-05-14T11:17:12;95280.97;;;24.85
30001;BMP280;16845;48.670;9.000;2023-05-14T11:19:42;95279.47;;;24.64
30001;BMP280;16845;48.670;9.000;2023-05-14T11:22:08;95260.38;;;28.15
30001;BMP280;16845;48.670;9.000;2023-05-14T11:24:35;95256.91;;;28.82
30001;BMP280;16845;48.670;9.000;2023-05-14T11:27:01;95258.13;;;25.30
30001;BMP280;16845;48.670;9.000;2023-05-14T11:29:29;95263.38;;;21.96
30001;BMP280;16845;48.670;9.000;2023-05-14T11:31:56;95262.31;;;21.55
30001;BMP280;16845;48.670;9.000;2023-05-14T11:34:22;95278.50;;;19.91
30001;BMP280;16845;48.670;9.000;2023-05-14T11:36:49;95274.50;;;20.48
30001;BMP280;16845;48.670;9.000;2023-05-14T11:39:16;95264.13;;;21.31
30001;BMP280;16845;48.670;9.000;2023-05-14T11:41:43;95252.66;;;21.47
30001;BMP280;16845;48.670;9.000;2023-05-14T11:44:11;95261.41;;;20.76
30001;BMP280;16845;48.670;9.000;2023-05-14T11:46:39;95263.13;;;19.19
30001;BMP280;16845;48.670;9.000;2023-05-14T11:49:05;95280.09;;;19.56
30001;BMP280;16845;48.670;9.000;2023-05-14T11:51:32;95266.59;;;22.73
30001;BMP280;16845;48.670;9.000;2023-05-14T11:53:58;95246.66;;;26.16
30001;BMP280;16845;48.670;9.000;2023-05-14T11:56:25;95234.91;;;25.77
30001;BMP280;16845;48.670;9.000;2023-05-14T11:58:55;95227.03;;;27.80
30001;BMP280;16845;48.670;9.000;2023-05-14T12:01:22;95232.72;;;27.41
30001;BMP280;16845;48.670;9.000;2023-05-14T12:03:50;95229.56;;;25.52
30001;BMP280;16845;48.670;9.000;2023-05-14T12:06:17;95247.31;;;22.27
30001;BMP280;16845;48.670;9.000;2023-05-14T12:08:46;95260.22;;;20.92
30001;BMP280;16845;48.670;9.000;2023-05-14T12:11:13;95255.94;;;18.60
30001;BMP280;16845;48.670;9.000;2023-05-14T12:13:39;95268.47;;;17.96
30001;BMP280;16845;48.670;9.000;2023-05-14T12:16:06;95262.78;;;17.79
30001;BMP280;16845;48.670;9.000;2023-05-14T12:18:32;95259.78;;;17.86
30001;BMP280;16845;48.670;9.000;2023-05-14T12:21:03;95247.22;;;18.11
30001;BMP280;16845;48.670;9.000;2023-05-14T12:23:31;95252.53;;;17.10
30001;BMP280;16845;48.670;9.000;2023-05-14T12:26:00;95250.31;;;17.48
30001;BMP280;16845;48.670;9.000;2023-05-14T12:28:26;95255.44;;;17.18
30001;BMP280;16845;48.670;9.000;2023-05-14T12:30:55;95250.38;;;17.46
30001;BMP280;16845;48.670;9.000;2023-05-14T12:33:22;95251.28;;;17.31
30001;BMP280;16845;48.670;9.000;2023-05-14T12:35:48;95255.94;;;16.95
30001;BMP280;16845;48.670;9.000;2023-05-14T12:38:16;95255.47;;;17.46
30001;BMP280;16845;48.670;9.000;2023-05-14T12:40:43;95251.38;;;17.72
30001;BMP280;16845;48.670;9.000;2023-05-14T12:43:11;95251.91;;;17.77
30001;BMP280;16845;48.670;9.000;2023-05-14T12:45:38;95246.31;;;17.72
30001;BMP280;16845;48.670;9.000;2023-05-14T12:48:05;95237.44;;;17.23
30001;BMP280;16845;48.670;9.000;2023-05-14T12:50:31;95242.56;;;17.07
30001;BMP280;16845;48.670;9.000;2023-05-14T12:52:58;95245.75;;;17.25
30001;BMP280;16845;48.670;9.000;2023-05-14T12:55:26;95241.34;;;17.42
30001;BMP280;16845;48.670;9.000;2023-05-14T12:57:52;95248.41;;;18.46
30001;BMP280;16845;48.670;9.000;2023-05-14T13:00:19;95231.13;;;19.03
30001;BMP280;16845;48.670;9.000;2023-05-14T13:02:45;95231.47;;;17.92
30001;BMP280;16845;48.670;9.000;2023-05-14T13:05:12;95229.13;;;17.49
30001;BMP280;16845;48.670;9.000;2023-05-14T13:07:39;95225.63;;;17.08
30001;BMP280;16845;48.670;9.000;2023-05-14T13:10:06;95230.06;;;16.61
30001;BMP280;16845;48.670;9.000;2023-05-14T13:12:35;95237.91;;;16.12
30001;BMP280;16845;48.670;9.000;2023-05-14T13:15:01;95235.25;;;15.84
30001;BMP280;16845;48.670;9.000;2023-05-14T13:17:28;95236.63;;;15.74
30001;BMP280;16845;48.670;9.000;2023-05-14T13:19:54;95237.03;;;15.51
30001;BMP280;16845;48.670;9.000;2023-05-14T13:22:21;95238.00;;;15.64
30001;BMP280;16845;48.670;9.000;2023-05-14T13:24:47;95226.94;;;15.82
30001;BMP280;16845;48.670;9.000;2023-05-14T13:27:14;95226.44;;;15.91
30001;BMP280;16845;48.670;9.000;2023-05-14T13:29:41;95224.16;;;16.02
30001;BMP280;16845;48.670;9.000;2023-05-14T13:32:08;95231.56;;;15.74
30001;BMP280;16845;48.670;9.000;2023-05-14T13:34:34;95220.25;;;15.81
30001;BMP280;16845;48.670;9.000;2023-05-14T13:37:01;95222.84;;;15.64
30001;BMP280;16845;48.670;9.000;2023-05-14T13:39:27;95213.44;;;15.97
30001;BMP280;16845;48.670;9.000;2023-05-14T13:41:54;95210.28;;;16.67
30001;BMP280;16845;48.670;9.000;2023-05-14T13:44:20;95199.16;;;17.41
30001;BMP280;16845;48.670;9.000;2023-05-14T13:46:48;95190.78;;;18.20
30001;BMP280;16845;48.670;9.000;2023-05-14T13:49:15;95199.94;;;17.96
30001;BMP280;16845;48.670;9.000;2023-05-14T13:51:41;95197.94;;;18.67
30001;BMP280;16845;48.670;9.000;2023-05-14T13:54:08;95180.28;;;18.90
30001;BMP280;16845;48.670;9.000;2023-05-14T13:56:34;95187.63;;;18.43
30001;BMP280;16845;48.670;9.000;2023-05-14T13:59:01;95173.59;;;18.50
30001;BMP280;16845;48.670;9.000;2023-05-14T14:01:27;95172.53;;;18.01
30001;BMP280;16845;48.670;9.000;2023-05-14T14:03:55;95169.03;;;18.30
30001;BMP280;16845;48.670;9.000;2023-05-14T14:06:22;95173.31;;;18.16
30001;BMP280;16845;48.670;9.000;2023-05-14T14:08:48;95169.69;;;17.39